createdAt,value
2018-03-04T00:00:16.789Z,99389.97
2018-03-04T00:01:22.394Z,99394.64
2018-03-04T00:02:28.272Z,99390.81
2018-03-04T00:03:34.190Z,99396.38
2018-03-04T00:04:40.144Z,99395.08
2018-03-04T00:05:46.312Z,99392.95
2018-03-04T00:06:52.460Z,99401.50
2018-03-04T00:08:04.714Z,99404.91
2018-03-04T00:09:14.984Z,99397.20
2018-03-04T00:10:21.136Z,99401.91
2018-03-04T00:11:27.040Z,99401.48
2018-03-04T00:12:33.189Z,99406.18
2018-03-04T00:13:39.368Z,99398.07
2018-03-04T00:14:45.504Z,99403.19
2018-03-04T00:15:51.697Z,99406.18
2018-03-04T00:16:57.985Z,99404.92
2018-03-04T00:18:04.142Z,99404.89
2018-03-04T00:19:10.275Z,99410.45
2018-03-04T00:20:16.434Z,99409.16
2018-03-04T00:21:22.356Z,99411.30
2018-03-04T00:22:39.976Z,99404.06
2018-03-04T00:23:46.126Z,99407.48
2018-03-04T00:24:52.336Z,99411.29
2018-03-04T00:25:58.455Z,99405.77
2018-03-04T00:27:04.641Z,99410.86
2018-03-04T00:28:10.824Z,99409.59
2018-03-04T00:29:16.987Z,99410.88
2018-03-04T00:30:23.184Z,99412.15
2018-03-04T00:31:29.370Z,99410.02
2018-03-04T00:32:35.552Z,99414.72
2018-03-04T00:33:41.731Z,99415.58
2018-03-04T00:34:47.861Z,99418.58
2018-03-04T00:35:54.044Z,99416.42
2018-03-04T00:37:00.198Z,99418.98
2018-03-04T00:38:06.385Z,99424.53
2018-03-04T00:39:12.552Z,99418.56
2018-03-04T00:40:18.679Z,99418.54
2018-03-04T00:41:24.932Z,99423.23
2018-03-04T00:42:31.084Z,99423.69
2018-03-04T00:43:37.299Z,99423.67
2018-03-04T00:44:43.738Z,99427.50
2018-03-04T00:45:49.932Z,99429.64
2018-03-04T00:46:56.368Z,99430.05
2018-03-04T00:48:02.529Z,99429.66
2018-03-04T00:49:08.683Z,99421.53
2018-03-04T00:50:14.642Z,99425.82
2018-03-04T00:51:20.443Z,99424.11
2018-03-04T00:52:26.633Z,99424.09
2018-03-04T00:53:32.833Z,99429.23
2018-03-04T00:54:42.135Z,99433.05
2018-03-04T00:55:51.465Z,99430.50
2018-03-04T00:56:57.669Z,99429.23
2018-03-04T00:58:04.177Z,99430.06
2018-03-04T00:59:10.347Z,99424.11
2018-03-04T01:00:16.491Z,99419.40
2018-03-04T01:01:22.661Z,99419.83
2018-03-04T01:02:28.817Z,99419.82
2018-03-04T01:03:34.976Z,99416.84
2018-03-04T01:04:41.097Z,99412.14
2018-03-04T01:05:47.284Z,99413.84
2018-03-04T01:06:53.456Z,99409.59
2018-03-04T01:07:59.638Z,99408.29
2018-03-04T01:09:04.809Z,99409.54
2018-03-04T01:10:10.531Z,99408.28
2018-03-04T01:11:17.069Z,99406.56
2018-03-04T01:12:22.911Z,99406.55
2018-03-04T01:13:28.929Z,99405.72
2018-03-04T01:14:35.232Z,99403.58
2018-03-04T01:15:41.404Z,99400.61
2018-03-04T01:16:47.618Z,99397.61
2018-03-04T01:17:53.809Z,99395.49
2018-03-04T01:18:59.976Z,99398.48
2018-03-04T01:20:06.103Z,99396.34
2018-03-04T01:21:12.258Z,99396.77
2018-03-04T01:22:19.036Z,99399.77
2018-03-04T01:23:25.054Z,99391.22
2018-03-04T01:24:31.187Z,99398.05
2018-03-04T01:25:37.402Z,99395.93
2018-03-04T01:26:43.559Z,99392.53
2018-03-04T01:27:49.773Z,99396.78
2018-03-04T01:28:56.125Z,99387.83
2018-03-04T01:30:02.278Z,99387.39
2018-03-04T01:31:07.744Z,99387.37
2018-03-04T01:32:13.876Z,99385.64
2018-03-04T01:33:20.027Z,99386.93
2018-03-04T01:34:26.249Z,99386.09
2018-03-04T01:35:32.439Z,99383.11
2018-03-04T01:36:38.610Z,99378.42
2018-03-04T01:37:44.761Z,99380.98
2018-03-04T01:38:51.032Z,99379.70
2018-03-04T01:39:57.176Z,99377.58
2018-03-04T01:41:03.364Z,99373.30
2018-03-04T01:42:09.652Z,99378.44
2018-03-04T01:43:15.600Z,99379.27
2018-03-04T01:44:21.782Z,99378.41
2018-03-04T01:45:27.972Z,99380.12
2018-03-04T01:46:34.140Z,99382.27
2018-03-04T01:47:40.311Z,99384.81
2018-03-04T01:48:46.473Z,99385.69
2018-03-04T01:49:52.705Z,99380.12
2018-03-04T01:50:58.884Z,99378.44
2018-03-04T01:52:05.057Z,99375.02
2018-03-04T01:53:11.193Z,99370.34
2018-03-04T01:54:17.008Z,99375.01
2018-03-04T01:55:23.166Z,99366.05
2018-03-04T01:56:30.195Z,99369.04
2018-03-04T01:57:36.371Z,99369.04
2018-03-04T01:58:42.569Z,99374.13
2018-03-04T01:59:48.713Z,99368.18
2018-03-04T02:00:54.521Z,99371.59
2018-03-04T02:02:01.794Z,99366.89
2018-03-04T02:03:07.953Z,99369.00
2018-03-04T02:04:13.847Z,99364.33
2018-03-04T02:05:19.982Z,99360.50
2018-03-04T02:06:26.178Z,99366.47
2018-03-04T02:07:32.151Z,99360.48
2018-03-04T02:08:38.314Z,99363.02
2018-03-04T02:09:44.532Z,99363.02
2018-03-04T02:10:50.696Z,99366.43
2018-03-04T02:11:56.839Z,99362.20
2018-03-04T02:13:02.989Z,99360.48
2018-03-04T02:14:09.260Z,99362.20
2018-03-04T02:15:15.469Z,99368.14
2018-03-04T02:16:21.659Z,99369.88
2018-03-04T02:17:27.852Z,99368.16
2018-03-04T02:18:33.956Z,99369.90
2018-03-04T02:19:40.174Z,99366.47
2018-03-04T02:20:46.312Z,99366.06
2018-03-04T02:21:53.380Z,99364.79
2018-03-04T02:22:59.510Z,99364.77
2018-03-04T02:24:05.726Z,99366.88
2018-03-04T02:25:11.906Z,99363.45
2018-03-04T02:26:18.069Z,99361.33
2018-03-04T02:27:24.223Z,99364.75
2018-03-04T02:28:30.399Z,99363.45
2018-03-04T02:29:36.611Z,99360.94
2018-03-04T02:30:42.545Z,99363.92
2018-03-04T02:31:48.702Z,99361.76
2018-03-04T02:32:54.946Z,99361.36
2018-03-04T02:34:01.129Z,99355.41
2018-03-04T02:35:07.253Z,99348.58
2018-03-04T02:36:13.454Z,99357.06
2018-03-04T02:37:19.582Z,99354.09
2018-03-04T02:38:25.708Z,99349.38
2018-03-04T02:39:31.881Z,99351.12
2018-03-04T02:40:37.999Z,99345.14
2018-03-04T02:41:44.229Z,99348.54
2018-03-04T02:42:50.440Z,99346.00
2018-03-04T02:43:56.755Z,99340.85
2018-03-04T02:45:02.945Z,99348.51
2018-03-04T02:46:09.981Z,99345.09
2018-03-04T02:47:15.814Z,99350.22
2018-03-04T02:48:21.760Z,99351.94
2018-03-04T02:49:28.019Z,99349.38
2018-03-04T02:50:35.142Z,99354.08
2018-03-04T02:51:41.276Z,99347.66
2018-03-04T02:52:47.445Z,99347.67
2018-03-04T02:53:53.588Z,99351.06
2018-03-04T02:54:59.741Z,99346.39
2018-03-04T02:56:05.922Z,99343.84
2018-03-04T02:57:12.980Z,99346.83
2018-03-04T02:58:19.149Z,99349.81
2018-03-04T02:59:25.366Z,99350.21
2018-03-04T03:00:31.550Z,99351.09
2018-03-04T03:01:38.020Z,99350.26
2018-03-04T03:02:44.156Z,99344.25
2018-03-04T03:03:50.275Z,99350.67
2018-03-04T03:05:02.476Z,99355.31
2018-03-04T03:06:08.641Z,99347.23
2018-03-04T03:07:18.459Z,99346.40
2018-03-04T03:08:25.499Z,99349.79
2018-03-04T03:09:31.696Z,99349.39
2018-03-04T03:10:37.545Z,99348.09
2018-03-04T03:11:44.446Z,99348.93
2018-03-04T03:12:50.594Z,99351.48
2018-03-04T03:13:56.736Z,99347.64
2018-03-04T03:15:02.909Z,99350.64
2018-03-04T03:16:09.096Z,99345.53
2018-03-04T03:17:15.407Z,99350.66
2018-03-04T03:18:21.626Z,99351.92
2018-03-04T03:19:28.680Z,99357.91
2018-03-04T03:20:34.901Z,99351.94
2018-03-04T03:21:41.058Z,99350.70
2018-03-04T03:22:47.205Z,99350.69
2018-03-04T03:23:54.245Z,99356.64
2018-03-04T03:25:01.299Z,99356.22
2018-03-04T03:26:08.390Z,99347.26
2018-03-04T03:27:14.570Z,99352.38
2018-03-04T03:28:20.803Z,99353.25
2018-03-04T03:29:27.044Z,99351.11
2018-03-04T03:30:33.240Z,99352.80
2018-03-04T03:31:39.403Z,99354.09
2018-03-04T03:32:45.569Z,99343.03
2018-03-04T03:33:51.727Z,99345.17
2018-03-04T03:34:57.920Z,99349.39
2018-03-04T03:36:04.927Z,99351.52
2018-03-04T03:37:11.180Z,99350.70
2018-03-04T03:38:17.476Z,99350.67
2018-03-04T03:39:23.634Z,99349.39
2018-03-04T03:40:29.494Z,99344.73
2018-03-04T03:41:35.608Z,99349.83
2018-03-04T03:42:41.789Z,99338.75
2018-03-04T03:43:53.271Z,99338.31
2018-03-04T03:44:59.458Z,99341.73
2018-03-04T03:46:06.303Z,99337.89
2018-03-04T03:47:12.534Z,99341.33
2018-03-04T03:48:18.992Z,99343.88
2018-03-04T03:49:25.144Z,99344.28
2018-03-04T03:50:31.308Z,99347.25
2018-03-04T03:51:42.393Z,99347.27
2018-03-04T03:52:50.480Z,99341.30
2018-03-04T03:54:02.477Z,99343.00
2018-03-04T03:55:08.652Z,99344.72
2018-03-04T03:56:14.833Z,99346.43
2018-03-04T03:57:26.163Z,99348.57
2018-03-04T03:58:33.246Z,99345.55
2018-03-04T03:59:39.463Z,99351.95
2018-03-04T04:00:45.599Z,99352.38
2018-03-04T04:01:51.775Z,99349.83
2018-03-04T04:02:57.920Z,99343.85
2018-03-04T04:04:04.154Z,99343.01
2018-03-04T04:05:10.283Z,99345.55
2018-03-04T04:06:16.428Z,99340.87
2018-03-04T04:07:22.637Z,99337.42
2018-03-04T04:08:28.752Z,99348.55
2018-03-04T04:09:34.869Z,99341.71
2018-03-04T04:10:41.104Z,99342.16
2018-03-04T04:11:47.350Z,99341.73
2018-03-04T04:12:53.497Z,99344.30
2018-03-04T04:13:59.612Z,99338.73
2018-03-04T04:15:05.844Z,99338.71
2018-03-04T04:16:12.036Z,99338.73
2018-03-04T04:17:18.141Z,99339.16
2018-03-04T04:18:24.377Z,99337.89
2018-03-04T04:19:30.384Z,99341.29
2018-03-04T04:20:36.207Z,99341.73
2018-03-04T04:21:42.383Z,99344.27
2018-03-04T04:22:48.551Z,99342.59
2018-03-04T04:23:54.462Z,99336.63
2018-03-04T04:25:00.652Z,99337.91
2018-03-04T04:26:06.157Z,99341.33
2018-03-04T04:27:12.304Z,99342.16
2018-03-04T04:28:18.440Z,99335.77
2018-03-04T04:29:24.606Z,99338.74
2018-03-04T04:30:31.681Z,99338.76
2018-03-04T04:31:37.936Z,99340.86
2018-03-04T04:32:44.082Z,99340.03
2018-03-04T04:33:49.924Z,99332.77
2018-03-04T04:34:56.112Z,99334.05
2018-03-04T04:36:02.262Z,99333.21
2018-03-04T04:37:08.424Z,99331.09
2018-03-04T04:38:14.759Z,99329.36
2018-03-04T04:39:20.991Z,99328.11
2018-03-04T04:40:27.114Z,99324.27
2018-03-04T04:41:33.306Z,99325.95
2018-03-04T04:42:40.340Z,99321.28
2018-03-04T04:43:46.520Z,99320.84
2018-03-04T04:44:52.642Z,99322.97
2018-03-04T04:45:58.786Z,99322.13
2018-03-04T04:47:05.317Z,99321.69
2018-03-04T04:48:11.298Z,99326.38
2018-03-04T04:49:17.853Z,99324.25
2018-03-04T04:50:24.026Z,99325.11
2018-03-04T04:51:30.160Z,99322.11
2018-03-04T04:52:36.314Z,99317.86
2018-03-04T04:53:42.461Z,99318.30
2018-03-04T04:54:48.641Z,99311.05
2018-03-04T04:55:54.792Z,99317.44
2018-03-04T04:57:00.951Z,99312.31
2018-03-04T04:58:07.088Z,99311.03
2018-03-04T04:59:13.284Z,99312.30
2018-03-04T05:00:19.472Z,99307.19
2018-03-04T05:01:25.692Z,99308.45
2018-03-04T05:02:31.892Z,99304.22
2018-03-04T05:03:38.024Z,99300.81
2018-03-04T05:04:44.219Z,99304.64
2018-03-04T05:05:50.402Z,99305.48
2018-03-04T05:06:56.529Z,99301.20
2018-03-04T05:08:02.678Z,99305.05
2018-03-04T05:09:08.810Z,99296.97
2018-03-04T05:10:15.015Z,99297.39
2018-03-04T05:11:21.151Z,99299.51
2018-03-04T05:12:28.183Z,99302.50
2018-03-04T05:13:34.344Z,99296.94
2018-03-04T05:14:40.516Z,99301.66
2018-03-04T05:15:46.713Z,99296.52
2018-03-04T05:16:52.893Z,99296.55
2018-03-04T05:17:59.058Z,99298.25
2018-03-04T05:19:05.283Z,99299.94
2018-03-04T05:20:11.508Z,99300.34
2018-03-04T05:21:18.565Z,99303.34
2018-03-04T05:22:24.833Z,99299.52
2018-03-04T05:23:30.979Z,99302.91
2018-03-04T05:24:37.135Z,99307.18
2018-03-04T05:25:43.305Z,99306.33
2018-03-04T05:26:49.440Z,99302.09
2018-03-04T05:27:55.692Z,99302.94
2018-03-04T05:29:01.865Z,99294.84
2018-03-04T05:30:08.096Z,99302.08
2018-03-04T05:31:14.242Z,99299.08
2018-03-04T05:32:20.414Z,99302.09
2018-03-04T05:33:27.228Z,99297.39
2018-03-04T05:34:33.417Z,99300.39
2018-03-04T05:35:40.339Z,99296.10
2018-03-04T05:36:46.485Z,99306.73
2018-03-04T05:37:52.630Z,99301.60
2018-03-04T05:38:59.713Z,99298.63
2018-03-04T05:40:05.522Z,99296.06
2018-03-04T05:41:11.734Z,99297.38
2018-03-04T05:42:18.821Z,99296.07
2018-03-04T05:43:24.928Z,99298.65
2018-03-04T05:44:31.123Z,99293.09
2018-03-04T05:45:37.272Z,99297.78
2018-03-04T05:46:43.484Z,99299.05
2018-03-04T05:47:50.003Z,99292.67
2018-03-04T05:48:56.202Z,99289.27
2018-03-04T05:50:02.402Z,99294.38
2018-03-04T05:51:08.545Z,99297.36
2018-03-04T05:52:14.724Z,99299.05
2018-03-04T05:53:20.666Z,99298.19
2018-03-04T05:54:26.885Z,99302.42
2018-03-04T05:55:38.690Z,99305.86
2018-03-04T05:56:44.852Z,99299.06
2018-03-04T05:57:50.744Z,99288.41
2018-03-04T05:58:56.944Z,99295.20
2018-03-04T06:00:03.179Z,99295.22
2018-03-04T06:01:09.336Z,99296.94
2018-03-04T06:02:15.696Z,99297.33
2018-03-04T06:03:21.852Z,99302.88
2018-03-04T06:04:27.743Z,99296.48
2018-03-04T06:05:33.938Z,99305.39
2018-03-04T06:06:40.199Z,99300.69
2018-03-04T06:07:46.428Z,99297.73
2018-03-04T06:08:52.663Z,99301.58
2018-03-04T06:09:58.791Z,99302.42
2018-03-04T06:11:05.007Z,99302.45
2018-03-04T06:12:11.221Z,99305.42
2018-03-04T06:13:17.368Z,99305.81
2018-03-04T06:14:23.521Z,99309.70
2018-03-04T06:15:29.694Z,99306.28
2018-03-04T06:16:35.848Z,99308.02
2018-03-04T06:17:42.084Z,99309.30
2018-03-04T06:18:48.239Z,99306.72
2018-03-04T06:19:54.431Z,99313.55
2018-03-04T06:21:01.209Z,99308.86
2018-03-04T06:22:07.424Z,99304.59
2018-03-04T06:23:13.615Z,99308.83
2018-03-04T06:24:19.876Z,99305.00
2018-03-04T06:25:25.979Z,99304.12
2018-03-04T06:26:32.152Z,99303.30
2018-03-04T06:27:38.331Z,99302.45
2018-03-04T06:28:44.582Z,99304.61
2018-03-04T06:29:50.755Z,99302.05
2018-03-04T06:30:56.920Z,99307.14
2018-03-04T06:32:03.078Z,99301.62
2018-03-04T06:33:08.941Z,99307.13
2018-03-04T06:34:15.070Z,99302.48
2018-03-04T06:35:20.939Z,99305.02
2018-03-04T06:36:27.100Z,99303.73
2018-03-04T06:37:33.254Z,99303.35
2018-03-04T06:38:39.409Z,99300.37
2018-03-04T06:39:45.597Z,99307.19
2018-03-04T06:40:51.809Z,99308.46
2018-03-04T06:41:57.952Z,99301.20
2018-03-04T06:43:04.087Z,99305.03
2018-03-04T06:44:10.321Z,99307.17
2018-03-04T06:45:16.521Z,99311.84
2018-03-04T06:46:22.651Z,99303.73
2018-03-04T06:47:28.798Z,99300.75
2018-03-04T06:48:35.038Z,99306.31
2018-03-04T06:49:41.260Z,99305.04
2018-03-04T06:50:55.346Z,99305.91
2018-03-04T06:52:01.475Z,99303.78
2018-03-04T06:53:07.629Z,99303.79
2018-03-04T06:54:13.797Z,99307.60
2018-03-04T06:55:19.941Z,99299.95
2018-03-04T06:56:26.186Z,99301.23
2018-03-04T06:58:37.720Z,99303.34
2018-03-04T06:59:43.906Z,99305.07
2018-03-04T07:00:50.103Z,99298.66
2018-03-04T07:01:59.071Z,99295.26
2018-03-04T07:03:05.843Z,99300.80
2018-03-04T07:04:13.013Z,99294.39
2018-03-04T07:05:19.260Z,99296.95
2018-03-04T07:06:26.047Z,99296.55
2018-03-04T07:07:32.376Z,99293.11
2018-03-04T07:08:38.590Z,99296.52
2018-03-04T07:09:44.945Z,99293.11
2018-03-04T07:10:51.170Z,99290.95
2018-03-04T07:11:57.366Z,99292.22
2018-03-04T07:13:03.892Z,99301.64
2018-03-04T07:14:10.106Z,99295.66
2018-03-04T07:15:16.371Z,99294.80
2018-03-04T07:16:22.822Z,99296.06
2018-03-04T07:17:29.021Z,99297.75
2018-03-04T07:18:35.285Z,99296.45
2018-03-04T07:19:41.754Z,99297.75
2018-03-04T07:20:47.910Z,99296.48
2018-03-04T07:21:54.076Z,99296.06
2018-03-04T07:23:00.293Z,99297.37
2018-03-04T07:24:06.557Z,99292.22
2018-03-04T07:25:12.768Z,99299.03
2018-03-04T07:26:19.230Z,99294.78
2018-03-04T07:27:25.389Z,99293.89
2018-03-04T07:28:31.588Z,99295.56
2018-03-04T07:29:37.730Z,99292.95
2018-03-04T07:30:44.251Z,99298.48
2018-03-04T07:31:50.483Z,99298.95
2018-03-04T07:32:56.612Z,99296.42
2018-03-04T07:34:02.897Z,99296.39
2018-03-04T07:35:09.195Z,99295.91
2018-03-04T07:36:15.581Z,99292.89
2018-03-04T07:37:21.938Z,99289.05
2018-03-04T07:38:28.181Z,99292.01
2018-03-04T07:39:34.737Z,99294.18
2018-03-04T07:40:40.922Z,99290.73
2018-03-04T07:41:47.387Z,99289.42
2018-03-04T07:42:53.978Z,99292.38
2018-03-04T07:44:00.386Z,99289.72
2018-03-04T07:45:07.136Z,99286.70
2018-03-04T07:46:13.047Z,99282.39
2018-03-04T07:47:19.314Z,99286.27
2018-03-04T07:48:31.105Z,99277.66
2018-03-04T07:49:40.293Z,99282.27
2018-03-04T07:50:46.864Z,99283.12
2018-03-04T07:51:53.081Z,99283.09
2018-03-04T07:52:59.236Z,99276.70
2018-03-04T07:54:05.053Z,99277.53
2018-03-04T07:55:12.024Z,99282.62
2018-03-04T07:56:18.452Z,99271.92
2018-03-04T07:57:24.902Z,99277.91
2018-03-04T07:58:31.156Z,99274.84
2018-03-04T07:59:37.428Z,99277.05
2018-03-04T08:00:43.781Z,99272.80
2018-03-04T08:01:50.370Z,99269.81
2018-03-04T08:02:57.075Z,99274.47
2018-03-04T08:04:03.252Z,99274.87
2018-03-04T08:05:09.413Z,99275.27
2018-03-04T08:06:15.619Z,99278.61
2018-03-04T08:07:21.794Z,99267.48
2018-03-04T08:08:28.074Z,99270.08
2018-03-04T08:09:34.329Z,99264.91
2018-03-04T08:10:40.772Z,99267.00
2018-03-04T08:11:47.240Z,99267.80
2018-03-04T08:12:53.517Z,99262.69
2018-03-04T08:13:59.919Z,99262.69
2018-03-04T08:15:06.129Z,99259.20
2018-03-04T08:16:11.708Z,99261.37
2018-03-04T08:17:18.048Z,99261.34
2018-03-04T08:18:24.252Z,99260.91
2018-03-04T08:19:30.594Z,99255.31
2018-03-04T08:20:36.898Z,99251.89
2018-03-04T08:21:43.214Z,99253.11
2018-03-04T08:22:49.407Z,99258.61
2018-03-04T08:23:55.629Z,99257.33
2018-03-04T08:25:12.836Z,99256.83
2018-03-04T08:26:30.341Z,99252.88
2018-03-04T08:29:18.566Z,99257.33
2018-03-04T08:30:24.903Z,99252.26
2018-03-04T08:31:31.197Z,99245.37
2018-03-04T08:32:37.421Z,99250.04
2018-03-04T08:33:44.495Z,99247.47
2018-03-04T08:34:50.682Z,99247.08
2018-03-04T08:35:57.073Z,99250.94
2018-03-04T08:37:02.942Z,99251.33
2018-03-04T08:38:10.057Z,99252.14
2018-03-04T08:39:16.364Z,99248.59
2018-03-04T08:40:22.713Z,99248.50
2018-03-04T08:41:29.876Z,99250.65
2018-03-04T08:42:36.091Z,99248.47
2018-03-04T08:43:42.740Z,99243.28
2018-03-04T08:44:48.692Z,99248.33
2018-03-04T08:45:55.409Z,99245.33
2018-03-04T08:47:01.810Z,99243.92
2018-03-04T08:48:08.167Z,99243.44
2018-03-04T08:49:14.340Z,99236.86
2018-03-04T08:50:20.564Z,99237.72
2018-03-04T08:51:26.873Z,99234.20
2018-03-04T08:52:33.009Z,99238.83
2018-03-04T08:53:39.699Z,99233.58
2018-03-04T08:54:45.916Z,99240.48
2018-03-04T08:55:52.419Z,99242.62
2018-03-04T08:56:59.269Z,99244.29
2018-03-04T08:58:05.161Z,99243.10
2018-03-04T08:59:11.609Z,99241.24
2018-03-04T09:00:17.800Z,99241.19
2018-03-04T09:01:24.023Z,99242.80
2018-03-04T09:02:30.217Z,99238.88
2018-03-04T09:03:36.536Z,99237.98
2018-03-04T09:04:42.711Z,99232.73
2018-03-04T09:05:48.939Z,99236.97
2018-03-04T09:06:55.205Z,99227.47
2018-03-04T09:08:01.829Z,99232.45
2018-03-04T09:09:08.035Z,99229.21
2018-03-04T09:10:14.634Z,99230.45
2018-03-04T09:11:23.065Z,99223.58
2018-03-04T09:12:30.048Z,99233.48
2018-03-04T09:13:39.707Z,99232.16
2018-03-04T09:14:46.037Z,99231.61
2018-03-04T09:15:53.080Z,99229.34
2018-03-04T09:16:59.357Z,99240.08
2018-03-04T09:18:05.999Z,99236.08
2018-03-04T09:19:12.843Z,99232.15
2018-03-04T09:20:19.890Z,99226.81
2018-03-04T09:21:26.386Z,99221.16
2018-03-04T09:22:33.107Z,99232.14
2018-03-04T09:23:42.504Z,99226.13
2018-03-04T09:24:49.006Z,99226.00
2018-03-04T09:25:55.657Z,99219.79
2018-03-04T09:27:03.299Z,99222.56
2018-03-04T09:28:11.037Z,99226.18
2018-03-04T09:29:18.432Z,99216.63
2018-03-04T09:30:25.129Z,99220.08
2018-03-04T09:31:31.742Z,99217.44
2018-03-04T09:32:38.148Z,99217.44
2018-03-04T09:33:44.377Z,99221.22
2018-03-04T09:34:50.760Z,99222.92
2018-03-04T09:35:57.992Z,99227.24
2018-03-04T09:37:05.093Z,99221.59
2018-03-04T09:38:11.718Z,99214.99
2018-03-04T09:39:18.121Z,99214.10
2018-03-04T09:40:24.693Z,99222.59
2018-03-04T09:41:31.078Z,99226.88
2018-03-04T09:42:37.430Z,99221.55
2018-03-04T09:43:43.923Z,99219.54
2018-03-04T09:44:50.682Z,99223.30
2018-03-04T09:45:58.047Z,99219.41
2018-03-04T09:47:04.698Z,99216.75
2018-03-04T09:48:11.321Z,99222.69
2018-03-04T09:49:17.809Z,99219.89
2018-03-04T09:50:26.600Z,99221.59
2018-03-04T09:51:33.981Z,99223.94
2018-03-04T09:52:40.585Z,99218.72
2018-03-04T09:53:49.766Z,99223.78
2018-03-04T09:54:56.711Z,99218.82
2018-03-04T09:56:03.061Z,99217.80
2018-03-04T09:57:11.105Z,99216.91
2018-03-04T09:58:18.572Z,99217.89
2018-03-04T09:59:27.790Z,99211.48
2018-03-04T10:00:34.569Z,99215.12
2018-03-04T10:01:41.422Z,99220.45
2018-03-04T10:02:47.928Z,99215.20
2018-03-04T10:03:54.426Z,99216.78
2018-03-04T10:05:01.274Z,99215.63
2018-03-04T10:06:08.117Z,99210.75
2018-03-04T10:07:14.528Z,99215.31
2018-03-04T10:08:25.666Z,99211.36
2018-03-04T10:09:32.688Z,99208.77
2018-03-04T10:10:39.372Z,99208.59
2018-03-04T10:11:45.910Z,99203.41
2018-03-04T10:12:52.489Z,99209.71
2018-03-04T10:13:59.489Z,99205.47
2018-03-04T10:15:06.016Z,99205.45
2018-03-04T10:16:12.477Z,99203.48
2018-03-04T10:17:19.447Z,99205.26
2018-03-04T10:18:26.519Z,99205.08
2018-03-04T10:19:33.701Z,99205.08
2018-03-04T10:20:41.268Z,99211.17
2018-03-04T10:21:51.602Z,99203.56
2018-03-04T10:22:59.571Z,99197.38
2018-03-04T10:24:07.362Z,99196.66
2018-03-04T10:25:14.266Z,99198.02
2018-03-04T10:26:22.414Z,99200.65
2018-03-04T10:27:29.598Z,99194.36
2018-03-04T10:28:38.749Z,99200.45
2018-03-04T10:29:47.827Z,99197.88
2018-03-04T10:30:55.658Z,99193.75
2018-03-04T10:32:02.546Z,99193.48
2018-03-04T10:33:10.338Z,99187.56
2018-03-04T10:34:18.829Z,99183.77
2018-03-04T10:35:26.640Z,99177.81
2018-03-04T10:36:37.525Z,99180.05
2018-03-04T10:37:45.612Z,99176.48
2018-03-04T10:38:54.909Z,99177.73
2018-03-04T10:40:02.010Z,99172.13
2018-03-04T10:41:09.685Z,99175.05
2018-03-04T10:42:17.285Z,99177.22
2018-03-04T10:43:24.031Z,99175.48
2018-03-04T10:44:31.145Z,99171.80
2018-03-04T10:45:38.048Z,99178.16
2018-03-04T10:46:47.310Z,99173.34
2018-03-04T10:47:54.488Z,99170.44
2018-03-04T10:49:01.201Z,99166.19
2018-03-04T10:50:07.839Z,99168.34
2018-03-04T10:51:14.744Z,99165.81
2018-03-04T10:52:22.380Z,99167.38
2018-03-04T10:53:29.381Z,99167.43
2018-03-04T10:54:36.427Z,99166.52
2018-03-04T10:55:43.500Z,99168.67
2018-03-04T10:56:49.933Z,99168.34
2018-03-04T10:57:55.989Z,99165.70
2018-03-04T10:59:02.458Z,99167.30
2018-03-04T11:00:09.078Z,99162.58
2018-03-04T11:01:20.423Z,99171.41
2018-03-04T11:02:35.417Z,99167.80
2018-03-04T11:03:42.201Z,99166.60
2018-03-04T11:04:48.761Z,99158.20
2018-03-04T11:05:54.553Z,99158.58
2018-03-04T11:07:01.275Z,99158.80
2018-03-04T11:08:08.324Z,99157.61
2018-03-04T11:09:15.900Z,99149.66
2018-03-04T11:10:22.977Z,99146.36
2018-03-04T11:11:29.741Z,99157.16
2018-03-04T11:12:36.871Z,99147.71
2018-03-04T11:13:45.276Z,99150.80
2018-03-04T11:14:53.374Z,99146.06
2018-03-04T11:16:00.125Z,99149.14
2018-03-04T11:17:06.620Z,99139.52
2018-03-04T11:18:13.923Z,99148.85
2018-03-04T11:19:20.630Z,99148.03
2018-03-04T11:20:27.290Z,99150.51
2018-03-04T11:21:34.252Z,99154.37
2018-03-04T11:22:42.693Z,99144.22
2018-03-04T11:23:49.681Z,99137.92
2018-03-04T11:24:56.437Z,99137.72
2018-03-04T11:26:03.573Z,99134.51
2018-03-04T11:27:10.610Z,99130.75
2018-03-04T11:28:17.325Z,99135.48
2018-03-04T11:29:24.025Z,99134.45
2018-03-04T11:30:30.257Z,99131.13
2018-03-04T11:31:36.496Z,99128.27
2018-03-04T11:32:42.877Z,99130.38
2018-03-04T11:33:49.085Z,99129.45
2018-03-04T11:34:55.296Z,99129.30
2018-03-04T11:36:01.971Z,99124.39
2018-03-04T11:37:08.199Z,99133.56
2018-03-04T11:38:14.121Z,99127.05
2018-03-04T11:39:20.862Z,99122.81
2018-03-04T11:40:27.288Z,99121.38
2018-03-04T11:41:34.056Z,99116.25
2018-03-04T11:42:40.280Z,99119.52
2018-03-04T11:43:47.156Z,99114.25
2018-03-04T11:44:53.405Z,99114.59
2018-03-04T11:45:59.605Z,99109.70
2018-03-04T11:47:05.904Z,99112.58
2018-03-04T11:48:12.139Z,99112.42
2018-03-04T11:49:18.826Z,99105.44
2018-03-04T11:50:25.742Z,99108.68
2018-03-04T11:51:32.407Z,99096.06
2018-03-04T11:52:39.153Z,99098.62
2018-03-04T11:53:45.819Z,99100.81
2018-03-04T11:54:52.288Z,99094.94
2018-03-04T11:55:59.172Z,99092.42
2018-03-04T11:57:06.417Z,99088.55
2018-03-04T11:58:13.740Z,99086.87
2018-03-04T11:59:21.113Z,99083.76
2018-03-04T12:00:31.077Z,99086.19
2018-03-04T12:01:37.803Z,99091.33
2018-03-04T12:02:45.168Z,99084.44
2018-03-04T12:03:53.144Z,99090.40
2018-03-04T12:04:59.650Z,99088.19
2018-03-04T12:06:06.453Z,99088.55
2018-03-04T12:07:14.464Z,99085.87
2018-03-04T12:08:21.859Z,99081.92
2018-03-04T12:09:28.485Z,99081.44
2018-03-04T12:10:38.989Z,99086.02
2018-03-04T12:11:46.995Z,99079.55
2018-03-04T12:12:54.121Z,99077.59
2018-03-04T12:14:04.378Z,99068.87
2018-03-04T12:15:10.624Z,99079.80
2018-03-04T12:16:18.222Z,99070.48
2018-03-04T12:17:24.425Z,99062.73
2018-03-04T12:18:30.666Z,99056.25
2018-03-04T12:19:36.954Z,99064.30
2018-03-04T12:20:43.175Z,99064.00
2018-03-04T12:21:49.447Z,99062.38
2018-03-04T12:23:01.428Z,99064.70
2018-03-04T12:24:07.658Z,99070.48
2018-03-04T12:25:13.891Z,99070.66
2018-03-04T12:26:20.143Z,99067.88
2018-03-04T12:27:26.938Z,99058.95
2018-03-04T12:28:36.145Z,99062.48
2018-03-04T12:29:43.214Z,99062.44
2018-03-04T12:30:49.790Z,99068.95
2018-03-04T12:31:56.032Z,99062.78
2018-03-04T12:33:02.295Z,99060.85
2018-03-04T12:34:08.205Z,99060.45
2018-03-04T12:35:14.771Z,99063.69
2018-03-04T12:36:20.994Z,99061.36
2018-03-04T12:37:27.208Z,99067.97
2018-03-04T12:38:33.471Z,99073.62
2018-03-04T12:39:39.743Z,99076.33
2018-03-04T12:40:46.008Z,99074.48
2018-03-04T12:41:52.224Z,99072.77
2018-03-04T12:42:58.691Z,99074.19
2018-03-04T12:44:04.906Z,99071.72
2018-03-04T12:45:11.194Z,99069.06
2018-03-04T12:46:17.454Z,99058.86
2018-03-04T12:47:23.674Z,99052.91
2018-03-04T12:48:29.997Z,99052.89
2018-03-04T12:49:36.047Z,99046.25
2018-03-04T12:50:42.283Z,99043.36
2018-03-04T12:51:48.492Z,99042.18
2018-03-04T12:52:54.361Z,99039.61
2018-03-04T12:54:00.628Z,99042.78
2018-03-04T12:55:06.879Z,99046.88
2018-03-04T12:56:13.392Z,99038.50
2018-03-04T12:57:19.949Z,99037.17
2018-03-04T12:58:26.097Z,99039.91
2018-03-04T12:59:32.510Z,99033.61
2018-03-04T13:00:38.756Z,99033.63
2018-03-04T13:01:44.986Z,99036.56
2018-03-04T13:02:51.222Z,99032.87
2018-03-04T13:03:58.415Z,99029.39
2018-03-04T13:05:04.644Z,99034.16